Terminal Aerodrome Forecast
Issued by NWS Albuquerque, NM

Home | Current Version | Previous Version | Text Only | Print | Product List | Glossary On
Versions: 1 2 3 4 5 6 7 8 9 10 11 12 13 14 15 16
367
FTUS45 KABQ 292330
TAFABQ
TAF
KABQ 292330Z 3000/3024 06009KT P6SM SCT120 BKN200
     FM300200 10011KT P6SM SCT200
     FM301500 VRB04KT P6SM SKC
     FM302300 14012KT P6SM VCSH SCT090=

USA.gov is the U.S. government's official web portal to all federal, state and local government web resources and services.